sensor_id;sensor_type;location;lat;lon;timestamp;pressure;altitude;pressure_sealevel;temperature;humidity
50790;BME280;37287;47.554;7.844;2023-03-04T00:00:51;98347.50;;;-0.15;100.00
50790;BME280;37287;47.554;7.844;2023-03-04T00:03:17;98345.00;;;-0.11;100.00
50790;BME280;37287;47.554;7.844;2023-03-04T00:05:44;98351.63;;;-0.09;100.00
50790;BME280;37287;47.554;7.844;2023-03-04T00:08:14;98354.81;;;-0.07;100.00
50790;BME280;37287;47.554;7.844;2023-03-04T00:10:41;98363.50;;;-0.01;100.00
50790;BME280;37287;47.554;7.844;2023-03-04T00:13:08;98360.53;;;0.01;100.00
50790;BME280;37287;47.554;7.844;2023-03-04T00:15:36;98362.59;;;0.04;100.00
50790;BME280;37287;47.554;7.844;2023-03-04T00:18:03;98362.00;;;0.07;100.00
50790;BME280;37287;47.554;7.844;2023-03-04T00:20:29;98363.28;;;0.09;100.00
50790;BME280;37287;47.554;7.844;2023-03-04T00:22:56;98366.47;;;0.11;100.00
50790;BME280;37287;47.554;7.844;2023-03-04T00:25:22;98369.13;;;0.11;100.00
50790;BME280;37287;47.554;7.844;2023-03-04T00:27:49;98370.69;;;0.12;100.00
50790;BME280;37287;47.554;7.844;2023-03-04T00:30:16;98371.19;;;0.14;100.00
50790;BME280;37287;47.554;7.844;2023-03-04T00:32:42;98374.34;;;0.16;100.00
50790;BME280;37287;47.554;7.844;2023-03-04T00:35:09;98366.34;;;0.16;100.00
50790;BME280;37287;47.554;7.844;2023-03-04T00:37:36;98368.53;;;0.14;100.00
50790;BME280;37287;47.554;7.844;2023-03-04T00:40:03;98364.28;;;0.13;100.00
50790;BME280;37287;47.554;7.844;2023-03-04T00:42:29;98360.03;;;0.12;100.00
50790;BME280;37287;47.554;7.844;2023-03-04T00:44:56;98369.63;;;0.13;100.00
50790;BME280;37287;47.554;7.844;2023-03-04T00:47:23;98359.97;;;0.17;100.00
50790;BME280;37287;47.554;7.844;2023-03-04T00:49:49;98360.44;;;0.20;100.00
50790;BME280;37287;47.554;7.844;2023-03-04T00:52:17;98360.44;;;0.20;100.00
50790;BME280;37287;47.554;7.844;2023-03-04T00:54:44;98358.59;;;0.20;100.00
50790;BME280;37287;47.554;7.844;2023-03-04T00:57:10;98362.03;;;0.21;100.00
50790;BME280;37287;47.554;7.844;2023-03-04T00:59:39;98358.06;;;0.18;100.00
50790;BME280;37287;47.554;7.844;2023-03-04T01:02:06;98357.88;;;0.14;100.00
50790;BME280;37287;47.554;7.844;2023-03-04T01:04:32;98361.16;;;0.11;100.00
50790;BME280;37287;47.554;7.844;2023-03-04T01:06:59;98365.97;;;0.09;100.00
50790;BME280;37287;47.554;7.844;2023-03-04T01:09:25;98364.38;;;0.08;100.00
50790;BME280;37287;47.554;7.844;2023-03-04T01:11:52;98364.38;;;0.08;100.00
50790;BME280;37287;47.554;7.844;2023-03-04T01:14:20;98360.44;;;0.06;100.00
50790;BME280;37287;47.554;7.844;2023-03-04T01:16:47;98358.56;;;0.06;100.00
50790;BME280;37287;47.554;7.844;2023-03-04T01:19:16;98355.41;;;0.04;100.00
50790;BME280;37287;47.554;7.844;2023-03-04T01:21:52;98356.56;;;-0.02;100.00
50790;BME280;37287;47.554;7.844;2023-03-04T01:24:18;98362.78;;;-0.07;100.00
50790;BME280;37287;47.554;7.844;2023-03-04T01:26:45;98353.28;;;-0.13;100.00
50790;BME280;37287;47.554;7.844;2023-03-04T01:29:14;98349.75;;;-0.22;100.00
50790;BME280;37287;47.554;7.844;2023-03-04T01:31:40;98337.88;;;-0.30;100.00
50790;BME280;37287;47.554;7.844;2023-03-04T01:34:07;98351.59;;;-0.37;100.00
50790;BME280;37287;47.554;7.844;2023-03-04T01:36:35;98343.19;;;-0.44;100.00
50790;BME280;37287;47.554;7.844;2023-03-04T01:39:03;98340.91;;;-0.50;100.00
50790;BME280;37287;47.554;7.844;2023-03-04T01:41:32;98339.66;;;-0.58;100.00
50790;BME280;37287;47.554;7.844;2023-03-04T01:44:05;98336.41;;;-0.69;100.00
50790;BME280;37287;47.554;7.844;2023-03-04T01:46:32;98336.47;;;-0.74;100.00
50790;BME280;37287;47.554;7.844;2023-03-04T01:48:58;98336.53;;;-0.79;100.00
50790;BME280;37287;47.554;7.844;2023-03-04T01:51:27;98335.53;;;-0.83;100.00
50790;BME280;37287;47.554;7.844;2023-03-04T01:53:54;98339.06;;;-0.88;100.00
50790;BME280;37287;47.554;7.844;2023-03-04T01:56:30;98332.25;;;-0.94;100.00
50790;BME280;37287;47.554;7.844;2023-03-04T01:59:06;98331.00;;;-1.02;100.00
50790;BME280;37287;47.554;7.844;2023-03-04T02:06:50;98318.16;;;-1.14;100.00
50790;BME280;37287;47.554;7.844;2023-03-04T02:09:19;98326.44;;;-1.15;100.00
50790;BME280;37287;47.554;7.844;2023-03-04T02:11:47;98323.25;;;-1.17;100.00
50790;BME280;37287;47.554;7.844;2023-03-04T02:14:16;98324.34;;;-1.18;100.00
50790;BME280;37287;47.554;7.844;2023-03-04T02:16:45;98313.22;;;-1.21;100.00
50790;BME280;37287;47.554;7.844;2023-03-04T02:21:44;98320.03;;;-1.14;100.00
50790;BME280;37287;47.554;7.844;2023-03-04T02:26:43;98317.28;;;-1.09;100.00
50790;BME280;37287;47.554;7.844;2023-03-04T02:29:14;98322.63;;;-1.09;100.00
50790;BME280;37287;47.554;7.844;2023-03-04T02:31:50;98317.81;;;-1.07;100.00
50790;BME280;37287;47.554;7.844;2023-03-04T02:34:43;98311.94;;;-1.04;100.00
50790;BME280;37287;47.554;7.844;2023-03-04T02:37:12;98317.72;;;-1.02;100.00
50790;BME280;37287;47.554;7.844;2023-03-04T02:39:42;98319.84;;;-0.99;100.00
50790;BME280;37287;47.554;7.844;2023-03-04T02:42:09;98316.78;;;-0.92;100.00
50790;BME280;37287;47.554;7.844;2023-03-04T02:44:42;98321.81;;;-0.91;100.00
50790;BME280;37287;47.554;7.844;2023-03-04T02:47:12;98319.38;;;-0.87;100.00
50790;BME280;37287;47.554;7.844;2023-03-04T02:49:40;98318.59;;;-0.88;100.00
50790;BME280;37287;47.554;7.844;2023-03-04T02:52:09;98325.47;;;-0.87;100.00
50790;BME280;37287;47.554;7.844;2023-03-04T02:54:36;98315.94;;;-0.88;100.00
50790;BME280;37287;47.554;7.844;2023-03-04T02:57:06;98319.66;;;-0.89;100.00
50790;BME280;37287;47.554;7.844;2023-03-04T02:59:35;98317.00;;;-0.89;100.00
50790;BME280;37287;47.554;7.844;2023-03-04T03:02:02;98319.16;;;-0.91;100.00
50790;BME280;37287;47.554;7.844;2023-03-04T03:04:29;98314.94;;;-0.92;100.00
50790;BME280;37287;47.554;7.844;2023-03-04T03:06:55;98308.63;;;-0.96;100.00
50790;BME280;37287;47.554;7.844;2023-03-04T03:09:22;98300.22;;;-1.03;100.00
50790;BME280;37287;47.554;7.844;2023-03-04T03:11:51;98312.28;;;-1.11;100.00
50790;BME280;37287;47.554;7.844;2023-03-04T03:14:17;98303.09;;;-1.18;100.00
50790;BME280;37287;47.554;7.844;2023-03-04T03:16:44;98305.03;;;-1.24;100.00
50790;BME280;37287;47.554;7.844;2023-03-04T03:19:12;98300.06;;;-1.31;100.00
50790;BME280;37287;47.554;7.844;2023-03-04T03:21:39;98296.69;;;-1.36;100.00
50790;BME280;37287;47.554;7.844;2023-03-04T03:24:05;98300.22;;;-1.41;100.00
50790;BME280;37287;47.554;7.844;2023-03-04T03:26:34;98308.19;;;-1.41;100.00
50790;BME280;37287;47.554;7.844;2023-03-04T03:29:00;98303.69;;;-1.46;100.00
50790;BME280;37287;47.554;7.844;2023-03-04T03:31:27;98314.13;;;-1.49;100.00
50790;BME280;37287;47.554;7.844;2023-03-04T03:33:57;98309.09;;;-1.51;100.00
50790;BME280;37287;47.554;7.844;2023-03-04T03:36:24;98311.22;;;-1.53;100.00
50790;BME280;37287;47.554;7.844;2023-03-04T03:38:50;98312.34;;;-1.54;100.00
50790;BME280;37287;47.554;7.844;2023-03-04T03:41:19;98317.91;;;-1.56;100.00
50790;BME280;37287;47.554;7.844;2023-03-04T03:43:47;98309.72;;;-1.59;100.00
50790;BME280;37287;47.554;7.844;2023-03-04T03:46:14;98310.88;;;-1.65;100.00
50790;BME280;37287;47.554;7.844;2023-03-04T03:48:42;98313.06;;;-1.73;100.00
50790;BME280;37287;47.554;7.844;2023-03-04T03:51:09;98310.75;;;-1.79;100.00
50790;BME280;37287;47.554;7.844;2023-03-04T03:53:37;98316.13;;;-1.84;100.00
50790;BME280;37287;47.554;7.844;2023-03-04T03:56:10;98313.81;;;-1.91;100.00
50790;BME280;37287;47.554;7.844;2023-03-04T03:58:37;98314.38;;;-1.94;100.00
50790;BME280;37287;47.554;7.844;2023-03-04T04:01:03;98317.88;;;-1.99;100.00
50790;BME280;37287;47.554;7.844;2023-03-04T04:03:30;98317.63;;;-2.02;100.00
50790;BME280;37287;47.554;7.844;2023-03-04T04:05:57;98315.84;;;-2.07;100.00
50790;BME280;37287;47.554;7.844;2023-03-04T04:08:23;98327.78;;;-2.10;100.00
50790;BME280;37287;47.554;7.844;2023-03-04T04:10:52;98318.53;;;-2.12;100.00
50790;BME280;37287;47.554;7.844;2023-03-04T04:13:19;98325.41;;;-2.11;100.00
50790;BME280;37287;47.554;7.844;2023-03-04T04:15:45;98320.72;;;-2.19;100.00
50790;BME280;37287;47.554;7.844;2023-03-04T04:18:13;98321.06;;;-2.26;100.00
50790;BME280;37287;47.554;7.844;2023-03-04T04:20:40;98322.69;;;-2.30;100.00
50790;BME280;37287;47.554;7.844;2023-03-04T04:23:06;98328.53;;;-2.33;100.00
50790;BME280;37287;47.554;7.844;2023-03-04T04:25:33;98326.44;;;-2.36;100.00
50790;BME280;37287;47.554;7.844;2023-03-04T04:28:00;98325.94;;;-2.38;100.00
50790;BME280;37287;47.554;7.844;2023-03-04T04:30:26;98327.28;;;-2.41;100.00
50790;BME280;37287;47.554;7.844;2023-03-04T04:32:53;98320.69;;;-2.44;100.00
50790;BME280;37287;47.554;7.844;2023-03-04T04:35:20;98328.91;;;-2.45;100.00
50790;BME280;37287;47.554;7.844;2023-03-04T04:37:52;98330.53;;;-2.49;100.00
50790;BME280;37287;47.554;7.844;2023-03-04T04:40:21;98333.47;;;-2.51;100.00
50790;BME280;37287;47.554;7.844;2023-03-04T04:42:47;98330.59;;;-2.54;100.00
50790;BME280;37287;47.554;7.844;2023-03-04T04:45:14;98333.28;;;-2.60;100.00
50790;BME280;37287;47.554;7.844;2023-03-04T04:47:41;98327.44;;;-2.62;100.00
50790;BME280;37287;47.554;7.844;2023-03-04T04:50:08;98329.59;;;-2.64;100.00
50790;BME280;37287;47.554;7.844;2023-03-04T04:52:34;98320.88;;;-2.64;100.00
50790;BME280;37287;47.554;7.844;2023-03-04T04:55:03;98331.19;;;-2.63;100.00
50790;BME280;37287;47.554;7.844;2023-03-04T04:57:30;98331.19;;;-2.63;100.00
50790;BME280;37287;47.554;7.844;2023-03-04T04:59:56;98336.78;;;-2.64;100.00
50790;BME280;37287;47.554;7.844;2023-03-04T05:02:23;98333.38;;;-2.70;100.00
50790;BME280;37287;47.554;7.844;2023-03-04T05:04:49;98338.13;;;-2.72;100.00
50790;BME280;37287;47.554;7.844;2023-03-04T05:07:16;98338.69;;;-2.75;100.00
50790;BME280;37287;47.554;7.844;2023-03-04T05:09:53;98333.69;;;-2.77;100.00
50790;BME280;37287;47.554;7.844;2023-03-04T05:12:21;98333.41;;;-2.80;100.00
50790;BME280;37287;47.554;7.844;2023-03-04T05:14:50;98337.16;;;-2.81;100.00
50790;BME280;37287;47.554;7.844;2023-03-04T05:17:21;98337.94;;;-2.81;100.00
50790;BME280;37287;47.554;7.844;2023-03-04T05:19:47;98329.75;;;-2.84;100.00
50790;BME280;37287;47.554;7.844;2023-03-04T05:22:14;98338.78;;;-2.85;100.00
50790;BME280;37287;47.554;7.844;2023-03-04T05:24:43;98339.84;;;-2.86;100.00
50790;BME280;37287;47.554;7.844;2023-03-04T05:27:09;98332.16;;;-2.88;100.00
50790;BME280;37287;47.554;7.844;2023-03-04T05:29:36;98338.31;;;-2.92;100.00
50790;BME280;37287;47.554;7.844;2023-03-04T05:32:07;98336.97;;;-2.95;100.00
50790;BME280;37287;47.554;7.844;2023-03-04T05:34:33;98339.09;;;-2.97;100.00
50790;BME280;37287;47.554;7.844;2023-03-04T05:37:00;98341.75;;;-2.97;100.00
50790;BME280;37287;47.554;7.844;2023-03-04T05:39:26;98342.56;;;-2.97;100.00
50790;BME280;37287;47.554;7.844;2023-03-04T05:41:55;98337.25;;;-2.97;100.00
50790;BME280;37287;47.554;7.844;2023-03-04T05:44:22;98335.66;;;-2.98;100.00
50790;BME280;37287;47.554;7.844;2023-03-04T05:46:50;98335.66;;;-2.98;100.00
50790;BME280;37287;47.554;7.844;2023-03-04T05:49:17;98336.72;;;-2.99;100.00
50790;BME280;37287;47.554;7.844;2023-03-04T05:51:43;98337.81;;;-3.00;100.00
50790;BME280;37287;47.554;7.844;2023-03-04T05:54:12;98342.59;;;-3.02;100.00
50790;BME280;37287;47.554;7.844;2023-03-04T05:56:39;98344.72;;;-3.04;100.00
50790;BME280;37287;47.554;7.844;2023-03-04T05:59:05;98347.09;;;-3.02;100.00
50790;BME280;37287;47.554;7.844;2023-03-04T06:01:33;98344.69;;;-2.99;100.00
50790;BME280;37287;47.554;7.844;2023-03-04T06:04:00;98351.00;;;-2.95;100.00
50790;BME280;37287;47.554;7.844;2023-03-04T06:06:27;98351.22;;;-2.86;100.00
50790;BME280;37287;47.554;7.844;2023-03-04T06:08:54;98354.34;;;-2.79;100.00
50790;BME280;37287;47.554;7.844;2023-03-04T06:11:21;98358.00;;;-2.69;100.00
50790;BME280;37287;47.554;7.844;2023-03-04T06:13:47;98362.94;;;-2.57;100.00
50790;BME280;37287;47.554;7.844;2023-03-04T06:16:18;98373.22;;;-2.46;100.00
50790;BME280;37287;47.554;7.844;2023-03-04T06:18:46;98361.19;;;-2.38;100.00
50790;BME280;37287;47.554;7.844;2023-03-04T06:21:13;98373.88;;;-2.30;100.00
50790;BME280;37287;47.554;7.844;2023-03-04T06:23:41;98381.50;;;-2.23;100.00
50790;BME280;37287;47.554;7.844;2023-03-04T06:26:08;98375.09;;;-2.17;100.00
50790;BME280;37287;47.554;7.844;2023-03-04T06:28:37;98375.31;;;-2.13;100.00
50790;BME280;37287;47.554;7.844;2023-03-04T06:31:04;98382.44;;;-2.09;100.00
50790;BME280;37287;47.554;7.844;2023-03-04T06:33:31;98386.91;;;-2.04;100.00
50790;BME280;37287;47.554;7.844;2023-03-04T06:35:58;98383.44;;;-1.99;100.00
50790;BME280;37287;47.554;7.844;2023-03-04T06:38:30;98393.69;;;-1.93;100.00
50790;BME280;37287;47.554;7.844;2023-03-04T06:41:05;98393.09;;;-1.84;100.00
50790;BME280;37287;47.554;7.844;2023-03-04T06:43:35;98395.69;;;-1.79;100.00
50790;BME280;37287;47.554;7.844;2023-03-04T06:46:02;98393.50;;;-1.72;100.00
50790;BME280;37287;47.554;7.844;2023-03-04T06:48:29;98401.91;;;-1.65;100.00
50790;BME280;37287;47.554;7.844;2023-03-04T06:50:56;98396.28;;;-1.58;100.00
50790;BME280;37287;47.554;7.844;2023-03-04T06:53:22;98397.50;;;-1.50;100.00
50790;BME280;37287;47.554;7.844;2023-03-04T06:55:49;98395.00;;;-1.42;100.00
50790;BME280;37287;47.554;7.844;2023-03-04T06:58:17;98400.97;;;-1.26;100.00
50790;BME280;37287;47.554;7.844;2023-03-04T07:00:44;98401.03;;;-1.12;100.00
50790;BME280;37287;47.554;7.844;2023-03-04T07:03:11;98400.06;;;-0.97;100.00
50790;BME280;37287;47.554;7.844;2023-03-04T07:05:38;98399.78;;;-0.76;100.00
50790;BME280;37287;47.554;7.844;2023-03-04T07:08:05;98410.94;;;-0.55;100.00
50790;BME280;37287;47.554;7.844;2023-03-04T07:10:34;98405.09;;;-0.38;100.00
50790;BME280;37287;47.554;7.844;2023-03-04T07:13:05;98414.59;;;-0.18;100.00
50790;BME280;37287;47.554;7.844;2023-03-04T07:15:32;98418.03;;;0.02;100.00
50790;BME280;37287;47.554;7.844;2023-03-04T07:17:58;98418.84;;;0.16;100.00
50790;BME280;37287;47.554;7.844;2023-03-04T07:20:25;98423.00;;;0.36;100.00
50790;BME280;37287;47.554;7.844;2023-03-04T07:22:53;98427.16;;;0.56;100.00
50790;BME280;37287;47.554;7.844;2023-03-04T07:25:20;98429.06;;;0.70;100.00
50790;BME280;37287;47.554;7.844;2023-03-04T07:27:48;98427.34;;;0.88;100.00
50790;BME280;37287;47.554;7.844;2023-03-04T07:30:15;98433.34;;;1.07;100.00
50790;BME280;37287;47.554;7.844;2023-03-04T07:32:41;98425.69;;;1.28;100.00
50790;BME280;37287;47.554;7.844;2023-03-04T07:35:10;98429.50;;;1.50;100.00
50790;BME280;37287;47.554;7.844;2023-03-04T07:37:38;98429.44;;;1.64;100.00
50790;BME280;37287;47.554;7.844;2023-03-04T07:40:06;98429.53;;;1.73;100.00
50790;BME280;37287;47.554;7.844;2023-03-04T07:42:39;98428.25;;;1.93;100.00
50790;BME280;37287;47.554;7.844;2023-03-04T07:45:07;98436.47;;;2.05;100.00
50790;BME280;37287;47.554;7.844;2023-03-04T07:47:35;98435.31;;;2.20;100.00
50790;BME280;37287;47.554;7.844;2023-03-04T07:50:01;98431.56;;;2.21;98.60
50790;BME280;37287;47.554;7.844;2023-03-04T07:52:28;98431.81;;;2.42;98.51
50790;BME280;37287;47.554;7.844;2023-03-04T07:55:07;98445.53;;;2.49;97.12
50790;BME280;37287;47.554;7.844;2023-03-04T07:57:39;98437.22;;;2.51;94.42
50790;BME280;37287;47.554;7.844;2023-03-04T08:00:07;98442.56;;;2.51;93.62
50790;BME280;37287;47.554;7.844;2023-03-04T08:02:34;98435.56;;;2.81;95.02
50790;BME280;37287;47.554;7.844;2023-03-04T08:05:01;98440.81;;;3.04;93.25
50790;BME280;37287;47.554;7.844;2023-03-04T08:07:30;98440.06;;;3.03;91.24
50790;BME280;37287;47.554;7.844;2023-03-04T08:09:56;98436.94;;;3.10;90.23
50790;BME280;37287;47.554;7.844;2023-03-04T08:12:24;98438.53;;;3.37;90.22
50790;BME280;37287;47.554;7.844;2023-03-04T08:14:51;98444.66;;;3.38;88.53
50790;BME280;37287;47.554;7.844;2023-03-04T08:17:18;98445.16;;;3.57;88.89
50790;BME280;37287;47.554;7.844;2023-03-04T08:19:45;98438.38;;;3.69;87.41
50790;BME280;37287;47.554;7.844;2023-03-04T08:22:11;98438.19;;;3.91;87.64
50790;BME280;37287;47.554;7.844;2023-03-04T08:24:38;98435.22;;;4.02;86.00
50790;BME280;37287;47.554;7.844;2023-03-04T08:27:06;98443.03;;;4.24;85.67
50790;BME280;37287;47.554;7.844;2023-03-04T08:29:33;98450.25;;;4.41;84.50
50790;BME280;37287;47.554;7.844;2023-03-04T08:31:59;98444.56;;;4.43;82.65
50790;BME280;37287;47.554;7.844;2023-03-04T08:34:27;98443.16;;;4.45;82.86
50790;BME280;37287;47.554;7.844;2023-03-04T08:36:56;98440.16;;;4.47;81.93
50790;BME280;37287;47.554;7.844;2023-03-04T08:39:22;98440.56;;;4.58;82.14
50790;BME280;37287;47.554;7.844;2023-03-04T08:41:51;98439.78;;;4.57;80.36
50790;BME280;37287;47.554;7.844;2023-03-04T08:44:17;98442.09;;;4.68;81.12
50790;BME280;37287;47.554;7.844;2023-03-04T08:46:44;98439.97;;;4.91;81.16
50790;BME280;37287;47.554;7.844;2023-03-04T08:49:11;98444.78;;;4.97;79.61
50790;BME280;37287;47.554;7.844;2023-03-04T08:51:38;98434.63;;;5.12;79.60
50790;BME280;37287;47.554;7.844;2023-03-04T08:54:04;98442.63;;;5.21;78.61
50790;BME280;37287;47.554;7.844;2023-03-04T08:56:32;98436.22;;;5.34;79.08
50790;BME280;37287;47.554;7.844;2023-03-04T08:59:00;98439.41;;;5.69;78.33
50790;BME280;37287;47.554;7.844;2023-03-04T09:01:29;98446.69;;;6.11;76.90
50790;BME280;37287;47.554;7.844;2023-03-04T09:03:57;98448.03;;;6.63;74.85
50790;BME280;37287;47.554;7.844;2023-03-04T09:06:24;98445.47;;;7.57;73.09
50790;BME280;37287;47.554;7.844;2023-03-04T09:08:51;98440.88;;;8.58;68.92
50790;BME280;37287;47.554;7.844;2023-03-04T09:11:21;98436.88;;;9.20;64.52
50790;BME280;37287;47.554;7.844;2023-03-04T09:13:48;98438.13;;;10.01;62.69
50790;BME280;37287;47.554;7.844;2023-03-04T09:16:16;98433.06;;;10.38;59.67
50790;BME280;37287;47.554;7.844;2023-03-04T09:18:43;98431.72;;;10.75;59.18
50790;BME280;37287;47.554;7.844;2023-03-04T09:21:10;98429.50;;;11.34;56.78
50790;BME280;37287;47.554;7.844;2023-03-04T09:23:37;98424.50;;;11.66;55.17
50790;BME280;37287;47.554;7.844;2023-03-04T09:26:36;98416.22;;;12.24;51.50
50790;BME280;37287;47.554;7.844;2023-03-04T09:29:03;98413.78;;;12.60;52.72
50790;BME280;37287;47.554;7.844;2023-03-04T09:31:32;98420.47;;;12.69;51.88
50790;BME280;37287;47.554;7.844;2023-03-04T09:33:59;98430.34;;;12.88;51.45
50790;BME280;37287;47.554;7.844;2023-03-04T09:36:25;98417.56;;;12.93;50.49
50790;BME280;37287;47.554;7.844;2023-03-04T09:38:52;98419.75;;;12.76;49.81
50790;BME280;37287;47.554;7.844;2023-03-04T09:41:22;98419.75;;;12.76;49.93
50790;BME280;37287;47.554;7.844;2023-03-04T09:43:51;98416.78;;;12.96;50.36
50790;BME280;37287;47.554;7.844;2023-03-04T09:46:36;98415.25;;;12.98;48.94
50790;BME280;37287;47.554;7.844;2023-03-04T09:49:06;98416.03;;;12.99;49.15
50790;BME280;37287;47.554;7.844;2023-03-04T09:56:50;98417.25;;;12.53;48.14
50790;BME280;37287;47.554;7.844;2023-03-04T09:59:27;98419.91;;;12.46;49.80
50790;BME280;37287;47.554;7.844;2023-03-04T10:02:06;98422.84;;;11.92;50.45
50790;BME280;37287;47.554;7.844;2023-03-04T10:04:46;98423.75;;;12.03;49.62
50790;BME280;37287;47.554;7.844;2023-03-04T10:07:21;98421.88;;;11.77;50.51
50790;BME280;37287;47.554;7.844;2023-03-04T10:09:57;98408.69;;;11.76;51.24
50790;BME280;37287;47.554;7.844;2023-03-04T10:12:29;98420.19;;;11.05;51.07
50790;BME280;37287;47.554;7.844;2023-03-04T10:15:04;98418.53;;;10.27;53.58
50790;BME280;37287;47.554;7.844;2023-03-04T10:17:39;98419.41;;;10.11;54.30
50790;BME280;37287;47.554;7.844;2023-03-04T10:20:11;98412.03;;;9.50;55.87
50790;BME280;37287;47.554;7.844;2023-03-04T10:23:20;98406.13;;;9.44;57.00
50790;BME280;37287;47.554;7.844;2023-03-04T10:25:40;98413.31;;;9.01;59.08
50790;BME280;37287;47.554;7.844;2023-03-04T10:28:17;98403.13;;;8.94;59.60
50790;BME280;37287;47.554;7.844;2023-03-04T10:33:48;98395.50;;;8.64;60.05
50790;BME280;37287;47.554;7.844;2023-03-04T10:39:06;98389.72;;;8.18;59.92
50790;BME280;37287;47.554;7.844;2023-03-04T10:41:34;98381.53;;;8.14;62.16
50790;BME280;37287;47.554;7.844;2023-03-04T10:46:44;98385.47;;;8.33;62.49
50790;BME280;37287;47.554;7.844;2023-03-04T10:49:16;98391.97;;;8.16;62.73
50790;BME280;37287;47.554;7.844;2023-03-04T10:52:00;98390.91;;;8.04;62.55
50790;BME280;37287;47.554;7.844;2023-03-04T10:57:19;98390.16;;;7.75;63.27
50790;BME280;37287;47.554;7.844;2023-03-04T11:02:30;98376.22;;;8.02;62.18
50790;BME280;37287;47.554;7.844;2023-03-04T11:07:54;98369.53;;;7.67;63.60
50790;BME280;37287;47.554;7.844;2023-03-04T11:10:30;98367.47;;;7.77;63.45
50790;BME280;37287;47.554;7.844;2023-03-04T11:15:28;98369.13;;;7.53;62.77
50790;BME280;37287;47.554;7.844;2023-03-04T11:17:59;98371.06;;;7.52;62.60
50790;BME280;37287;47.554;7.844;2023-03-04T11:20:35;98370.25;;;7.52;63.76
50790;BME280;37287;47.554;7.844;2023-03-04T11:23:11;98362.63;;;7.54;63.95
50790;BME280;37287;47.554;7.844;2023-03-04T11:25:53;98368.28;;;7.36;63.13
50790;BME280;37287;47.554;7.844;2023-03-04T11:28:23;98362.28;;;7.27;63.31
50790;BME280;37287;47.554;7.844;2023-03-04T11:30:54;98360.72;;;7.14;64.08
50790;BME280;37287;47.554;7.844;2023-03-04T11:36:46;98360.75;;;7.01;64.10
50790;BME280;37287;47.554;7.844;2023-03-04T11:39:25;98353.00;;;7.40;65.47
50790;BME280;37287;47.554;7.844;2023-03-04T11:42:03;98352.78;;;7.46;65.01
50790;BME280;37287;47.554;7.844;2023-03-04T11:44:31;98348.69;;;7.52;64.51
50790;BME280;37287;47.554;7.844;2023-03-04T11:50:51;98337.16;;;7.11;65.60
50790;BME280;37287;47.554;7.844;2023-03-04T11:56:26;98328.28;;;7.22;64.79
50790;BME280;37287;47.554;7.844;2023-03-04T11:59:24;98328.69;;;7.37;65.89
50790;BME280;37287;47.554;7.844;2023-03-04T12:07:27;98313.78;;;6.86;66.00
50790;BME280;37287;47.554;7.844;2023-03-04T12:27:03;98292.81;;;6.80;66.99
50790;BME280;37287;47.554;7.844;2023-03-04T12:29:46;98287.66;;;6.87;67.93
50790;BME280;37287;47.554;7.844;2023-03-04T12:32:30;98286.59;;;7.04;67.64
50790;BME280;37287;47.554;7.844;2023-03-04T12:54:39;98249.94;;;6.99;66.42
50790;BME280;37287;47.554;7.844;2023-03-04T12:57:12;98257.22;;;6.99;68.19
50790;BME280;37287;47.554;7.844;2023-03-04T13:10:29;98243.63;;;7.08;67.12
50790;BME280;37287;47.554;7.844;2023-03-04T13:12:57;98242.19;;;6.98;67.16
50790;BME280;37287;47.554;7.844;2023-03-04T13:17:54;98229.03;;;7.09;67.50
50790;BME280;37287;47.554;7.844;2023-03-04T13:20:40;98222.13;;;6.95;66.69
50790;BME280;37287;47.554;7.844;2023-03-04T13:26:16;98216.88;;;7.15;67.47
50790;BME280;37287;47.554;7.844;2023-03-04T13:28:44;98217.00;;;7.18;68.13
50790;BME280;37287;47.554;7.844;2023-03-04T13:31:15;98217.75;;;7.03;67.75
50790;BME280;37287;47.554;7.844;2023-03-04T19:17:20;98198.16;;;1.19;91.72
50790;BME280;37287;47.554;7.844;2023-03-04T19:20:05;98202.53;;;1.15;92.35
50790;BME280;37287;47.554;7.844;2023-03-04T19:22:37;98208.16;;;1.13;92.03
50790;BME280;37287;47.554;7.844;2023-03-04T19:25:13;98209.84;;;1.09;92.42
50790;BME280;37287;47.554;7.844;2023-03-04T19:27:40;98210.16;;;1.08;92.30
50790;BME280;37287;47.554;7.844;2023-03-04T19:30:07;98217.97;;;1.04;92.47
50790;BME280;37287;47.554;7.844;2023-03-04T19:32:35;98226.47;;;1.06;93.08
50790;BME280;37287;47.554;7.844;2023-03-04T19:35:02;98217.50;;;1.02;92.30
50790;BME280;37287;47.554;7.844;2023-03-04T19:37:29;98225.63;;;0.97;92.05
50790;BME280;37287;47.554;7.844;2023-03-04T19:39:55;98220.88;;;0.94;93.32
50790;BME280;37287;47.554;7.844;2023-03-04T19:42:25;98224.63;;;0.93;92.95
50790;BME280;37287;47.554;7.844;2023-03-04T19:44:52;98224.75;;;0.88;93.01
50790;BME280;37287;47.554;7.844;2023-03-04T19:47:18;98223.81;;;0.83;92.81
50790;BME280;37287;47.554;7.844;2023-03-04T19:49:45;98220.75;;;0.76;93.07
50790;BME280;37287;47.554;7.844;2023-03-04T19:52:13;98222.16;;;0.74;93.22
50790;BME280;37287;47.554;7.844;2023-03-04T19:54:44;98223.03;;;0.69;93.14
50790;BME280;37287;47.554;7.844;2023-03-04T19:57:10;98225.25;;;0.67;94.35
50790;BME280;37287;47.554;7.844;2023-03-04T19:59:37;98221.09;;;0.61;93.58
50790;BME280;37287;47.554;7.844;2023-03-04T20:02:03;98221.91;;;0.61;94.09
50790;BME280;37287;47.554;7.844;2023-03-04T20:04:32;98221.69;;;0.58;93.74
50790;BME280;37287;47.554;7.844;2023-03-04T20:06:59;98226.25;;;0.57;94.06
50790;BME280;37287;47.554;7.844;2023-03-04T20:09:25;98227.94;;;0.53;94.06
50790;BME280;37287;47.554;7.844;2023-03-04T20:11:52;98225.06;;;0.49;94.42
50790;BME280;37287;47.554;7.844;2023-03-04T20:14:27;98224.28;;;0.49;94.22
50790;BME280;37287;47.554;7.844;2023-03-04T20:17:01;98229.63;;;0.49;94.80
50790;BME280;37287;47.554;7.844;2023-03-04T20:19:29;98224.13;;;0.45;94.42
50790;BME280;37287;47.554;7.844;2023-03-04T20:21:57;98232.69;;;0.42;94.88
50790;BME280;37287;47.554;7.844;2023-03-04T20:24:23;98237.03;;;0.38;94.93
50790;BME280;37287;47.554;7.844;2023-03-04T20:26:51;98229.78;;;0.30;95.01
50790;BME280;37287;47.554;7.844;2023-03-04T20:29:19;98230.94;;;0.24;94.89
50790;BME280;37287;47.554;7.844;2023-03-04T20:31:46;98231.75;;;0.24;95.55
50790;BME280;37287;47.554;7.844;2023-03-04T20:34:13;98236.41;;;0.19;95.57
50790;BME280;37287;47.554;7.844;2023-03-04T20:36:40;98242.28;;;0.15;95.56